sensor_id;sensor_type;location;lat;lon;timestamp;pressure;altitude;pressure_sealevel;temperature;humidity
15193;BME280;7697;51.630;7.484;2023-05-09T00:04:46;101063.66;;;17.75;95.46
15193;BME280;7697;51.630;7.484;2023-05-09T00:09:48;101068.91;;;17.70;95.21
15193;BME280;7697;51.630;7.484;2023-05-09T00:14:50;101054.66;;;17.58;95.21
15193;BME280;7697;51.630;7.484;2023-05-09T00:19:55;101056.66;;;17.51;95.30
15193;BME280;7697;51.630;7.484;2023-05-09T00:24:56;101048.63;;;17.51;94.98
15193;BME280;7697;51.630;7.484;2023-05-09T00:29:58;101040.34;;;17.41;95.32
15193;BME280;7697;51.630;7.484;2023-05-09T00:35:01;101040.34;;;17.41;95.56
15193;BME280;7697;51.630;7.484;2023-05-09T00:40:04;101037.19;;;17.32;95.45
15193;BME280;7697;51.630;7.484;2023-05-09T00:45:07;101037.31;;;17.25;95.33
15193;BME280;7697;51.630;7.484;2023-05-09T00:50:11;101024.84;;;17.19;95.60
15193;BME280;7697;51.630;7.484;2023-05-09T00:55:14;101012.38;;;17.13;95.87
15193;BME280;7697;51.630;7.484;2023-05-09T01:00:17;101006.44;;;17.00;96.20
15193;BME280;7697;51.630;7.484;2023-05-09T01:05:21;101009.81;;;16.95;96.70
15193;BME280;7697;51.630;7.484;2023-05-09T01:10:33;100983.16;;;16.88;96.71
15193;BME280;7697;51.630;7.484;2023-05-09T01:15:40;100992.00;;;16.89;96.74
15193;BME280;7697;51.630;7.484;2023-05-09T01:20:50;100977.44;;;16.85;96.74
15193;BME280;7697;51.630;7.484;2023-05-09T01:25:59;100974.16;;;16.83;96.69
15193;BME280;7697;51.630;7.484;2023-05-09T01:31:04;100966.47;;;16.75;96.50
15193;BME280;7697;51.630;7.484;2023-05-09T01:36:11;100972.31;;;16.72;96.71
15193;BME280;7697;51.630;7.484;2023-05-09T01:41:16;100956.44;;;16.59;96.67
15193;BME280;7697;51.630;7.484;2023-05-09T01:46:21;100969.38;;;16.62;97.02
15193;BME280;7697;51.630;7.484;2023-05-09T01:51:24;100962.22;;;16.56;96.97
15193;BME280;7697;51.630;7.484;2023-05-09T01:56:27;100953.84;;;16.52;97.10
15193;BME280;7697;51.630;7.484;2023-05-09T02:01:31;100943.72;;;16.42;97.36
15193;BME280;7697;51.630;7.484;2023-05-09T02:06:33;100941.97;;;16.36;97.89
15193;BME280;7697;51.630;7.484;2023-05-09T02:11:36;100940.66;;;16.27;98.39
15193;BME280;7697;51.630;7.484;2023-05-09T02:16:39;100937.38;;;16.25;98.46
15193;BME280;7697;51.630;7.484;2023-05-09T02:21:41;100944.69;;;16.18;98.83
15193;BME280;7697;51.630;7.484;2023-05-09T02:26:43;100941.22;;;16.18;98.63
15193;BME280;7697;51.630;7.484;2023-05-09T02:31:47;100938.16;;;16.14;98.97
15193;BME280;7697;51.630;7.484;2023-05-09T02:36:50;100927.56;;;16.07;98.79
15193;BME280;7697;51.630;7.484;2023-05-09T02:41:52;100933.13;;;16.06;99.27
15193;BME280;7697;51.630;7.484;2023-05-09T02:46:55;100930.09;;;16.02;99.13
15193;BME280;7697;51.630;7.484;2023-05-09T02:51:57;100931.81;;;15.97;99.48
15193;BME280;7697;51.630;7.484;2023-05-09T02:56:58;100928.94;;;15.98;99.35
15193;BME280;7697;51.630;7.484;2023-05-09T03:02:01;100928.31;;;15.96;99.29
15193;BME280;7697;51.630;7.484;2023-05-09T03:07:04;100918.19;;;15.87;99.97
15193;BME280;7697;51.630;7.484;2023-05-09T03:12:05;100918.78;;;15.89;99.73
15193;BME280;7697;51.630;7.484;2023-05-09T03:17:08;100912.50;;;15.83;99.90
15193;BME280;7697;51.630;7.484;2023-05-09T03:22:10;100917.00;;;15.83;99.89
15193;BME280;7697;51.630;7.484;2023-05-09T03:27:12;100911.06;;;15.81;100.00
15193;BME280;7697;51.630;7.484;2023-05-09T03:32:15;100903.06;;;15.81;99.96
15193;BME280;7697;51.630;7.484;2023-05-09T03:37:16;100895.88;;;15.81;99.92
15193;BME280;7697;51.630;7.484;2023-05-09T03:42:18;100902.38;;;15.85;99.77
15193;BME280;7697;51.630;7.484;2023-05-09T03:47:22;100891.13;;;15.83;99.63
15193;BME280;7697;51.630;7.484;2023-05-09T03:52:23;100888.19;;;15.85;99.75
15193;BME280;7697;51.630;7.484;2023-05-09T03:57:25;100888.78;;;15.87;99.81
15193;BME280;7697;51.630;7.484;2023-05-09T04:02:28;100889.22;;;15.84;99.67
15193;BME280;7697;51.630;7.484;2023-05-09T04:07:30;100885.78;;;15.83;99.79
15193;BME280;7697;51.630;7.484;2023-05-09T04:12:31;100891.47;;;15.87;99.88
15193;BME280;7697;51.630;7.484;2023-05-09T04:17:34;100889.22;;;15.84;100.00
15193;BME280;7697;51.630;7.484;2023-05-09T04:22:36;100886.22;;;15.80;100.00
15193;BME280;7697;51.630;7.484;2023-05-09T04:27:38;100886.56;;;15.84;99.98
15193;BME280;7697;51.630;7.484;2023-05-09T04:32:41;100880.34;;;15.90;99.93
15193;BME280;7697;51.630;7.484;2023-05-09T04:37:45;100866.50;;;15.93;99.53
15193;BME280;7697;51.630;7.484;2023-05-09T04:42:46;100870.97;;;15.99;99.59
15193;BME280;7697;51.630;7.484;2023-05-09T04:47:50;100872.13;;;16.03;99.82
15193;BME280;7697;51.630;7.484;2023-05-09T04:52:52;100857.94;;;16.02;99.76
15193;BME280;7697;51.630;7.484;2023-05-09T04:57:54;100857.28;;;16.07;99.71
15193;BME280;7697;51.630;7.484;2023-05-09T05:02:57;100848.00;;;16.09;99.83
15193;BME280;7697;51.630;7.484;2023-05-09T05:07:58;100845.66;;;16.13;99.96
15193;BME280;7697;51.630;7.484;2023-05-09T05:13:00;100850.13;;;16.19;99.92
15193;BME280;7697;51.630;7.484;2023-05-09T05:18:04;100835.69;;;16.20;99.89
15193;BME280;7697;51.630;7.484;2023-05-09T05:23:06;100831.53;;;16.24;99.92
15193;BME280;7697;51.630;7.484;2023-05-09T05:28:08;100830.03;;;16.28;100.00
15193;BME280;7697;51.630;7.484;2023-05-09T05:33:12;100837.94;;;16.35;100.00
15193;BME280;7697;51.630;7.484;2023-05-09T05:38:13;100829.44;;;16.38;99.88
15193;BME280;7697;51.630;7.484;2023-05-09T05:43:15;100816.44;;;16.41;100.00
15193;BME280;7697;51.630;7.484;2023-05-09T05:48:19;100818.75;;;16.49;99.76
15193;BME280;7697;51.630;7.484;2023-05-09T05:53:21;100815.97;;;16.56;99.74
15193;BME280;7697;51.630;7.484;2023-05-09T05:58:22;100813.44;;;16.61;99.75
15193;BME280;7697;51.630;7.484;2023-05-09T06:03:26;100810.06;;;16.66;100.00
15193;BME280;7697;51.630;7.484;2023-05-09T06:08:28;100801.56;;;16.69;100.00
15193;BME280;7697;51.630;7.484;2023-05-09T06:13:30;100800.88;;;16.73;100.00
15193;BME280;7697;51.630;7.484;2023-05-09T06:18:33;100792.75;;;16.80;100.00
15193;BME280;7697;51.630;7.484;2023-05-09T06:23:37;100792.84;;;16.85;100.00
15193;BME280;7697;51.630;7.484;2023-05-09T06:28:38;100795.50;;;16.97;100.00
15193;BME280;7697;51.630;7.484;2023-05-09T06:33:42;100782.78;;;17.04;100.00
15193;BME280;7697;51.630;7.484;2023-05-09T06:38:44;100776.47;;;17.10;100.00
15193;BME280;7697;51.630;7.484;2023-05-09T06:43:46;100770.75;;;17.18;100.00
15193;BME280;7697;51.630;7.484;2023-05-09T06:48:49;100769.09;;;17.29;100.00
15193;BME280;7697;51.630;7.484;2023-05-09T06:53:51;100760.22;;;17.40;100.00
15193;BME280;7697;51.630;7.484;2023-05-09T06:58:52;100759.94;;;17.53;100.00
15193;BME280;7697;51.630;7.484;2023-05-09T07:03:55;100752.19;;;17.68;99.52
15193;BME280;7697;51.630;7.484;2023-05-09T07:08:58;100738.56;;;17.86;99.44
15193;BME280;7697;51.630;7.484;2023-05-09T07:14:00;100737.28;;;18.06;98.86
15193;BME280;7697;51.630;7.484;2023-05-09T07:19:03;100740.66;;;18.18;97.89
15193;BME280;7697;51.630;7.484;2023-05-09T07:24:05;100724.44;;;18.24;97.60
15193;BME280;7697;51.630;7.484;2023-05-09T07:29:07;100720.56;;;18.37;97.42
15193;BME280;7697;51.630;7.484;2023-05-09T07:34:10;100710.16;;;18.57;97.02
15193;BME280;7697;51.630;7.484;2023-05-09T07:39:12;100701.03;;;18.80;96.49
15193;BME280;7697;51.630;7.484;2023-05-09T07:44:14;100701.84;;;19.02;95.27
15193;BME280;7697;51.630;7.484;2023-05-09T07:49:17;100696.63;;;19.18;94.03
15193;BME280;7697;51.630;7.484;2023-05-09T07:54:19;100694.38;;;19.31;93.34
15193;BME280;7697;51.630;7.484;2023-05-09T07:59:21;100690.88;;;19.31;93.41
15193;BME280;7697;51.630;7.484;2023-05-09T08:04:24;100675.94;;;19.45;93.52
15193;BME280;7697;51.630;7.484;2023-05-09T08:09:27;100668.34;;;19.64;93.14
15193;BME280;7697;51.630;7.484;2023-05-09T08:14:29;100652.31;;;19.74;92.23
15193;BME280;7697;51.630;7.484;2023-05-09T08:19:32;100657.22;;;19.87;91.92
15193;BME280;7697;51.630;7.484;2023-05-09T08:24:33;100643.84;;;19.97;91.68
15193;BME280;7697;51.630;7.484;2023-05-09T08:29:35;100631.00;;;20.09;91.52
15193;BME280;7697;51.630;7.484;2023-05-09T08:34:38;100641.84;;;20.19;91.08
15193;BME280;7697;51.630;7.484;2023-05-09T08:39:41;100632.72;;;20.26;90.57
15193;BME280;7697;51.630;7.484;2023-05-09T08:44:43;100637.84;;;20.27;90.34
15193;BME280;7697;51.630;7.484;2023-05-09T08:49:46;100631.22;;;20.40;89.63
15193;BME280;7697;51.630;7.484;2023-05-09T08:54:49;100633.88;;;20.35;89.40
15193;BME280;7697;51.630;7.484;2023-05-09T08:59:52;100627.59;;;20.24;88.85
15193;BME280;7697;51.630;7.484;2023-05-09T09:04:57;100619.50;;;20.19;88.58
15193;BME280;7697;51.630;7.484;2023-05-09T09:09:59;100613.88;;;20.20;88.80
15193;BME280;7697;51.630;7.484;2023-05-09T09:15:05;100609.66;;;20.35;88.48
15193;BME280;7697;51.630;7.484;2023-05-09T09:20:13;100599.22;;;20.53;87.91
15193;BME280;7697;51.630;7.484;2023-05-09T09:25:16;100592.50;;;20.61;87.23
15193;BME280;7697;51.630;7.484;2023-05-09T09:30:18;100589.81;;;20.61;84.59
15193;BME280;7697;51.630;7.484;2023-05-09T09:35:22;100579.59;;;20.63;85.14
15193;BME280;7697;51.630;7.484;2023-05-09T09:40:24;100583.41;;;20.72;83.91
15193;BME280;7697;51.630;7.484;2023-05-09T09:45:26;100573.75;;;20.96;83.67
15193;BME280;7697;51.630;7.484;2023-05-09T09:50:29;100562.97;;;21.07;83.11
15193;BME280;7697;51.630;7.484;2023-05-09T09:55:33;100547.38;;;21.24;83.13
15193;BME280;7697;51.630;7.484;2023-05-09T10:00:35;100546.84;;;21.47;81.95
15193;BME280;7697;51.630;7.484;2023-05-09T10:05:38;100541.13;;;21.74;79.58
15193;BME280;7697;51.630;7.484;2023-05-09T10:10:41;100538.06;;;21.96;79.72
15193;BME280;7697;51.630;7.484;2023-05-09T10:15:43;100541.75;;;22.25;77.91
15193;BME280;7697;51.630;7.484;2023-05-09T10:20:47;100537.72;;;22.67;76.46
15193;BME280;7697;51.630;7.484;2023-05-09T10:25:59;100516.56;;;22.84;75.25
15193;BME280;7697;51.630;7.484;2023-05-09T10:31:11;100506.66;;;22.69;75.13
15193;BME280;7697;51.630;7.484;2023-05-09T10:36:18;100503.53;;;22.52;75.61
15193;BME280;7697;51.630;7.484;2023-05-09T10:41:21;100505.38;;;22.62;76.01
15193;BME280;7697;51.630;7.484;2023-05-09T10:46:23;100494.72;;;22.80;75.14
15193;BME280;7697;51.630;7.484;2023-05-09T10:51:27;100486.03;;;22.89;74.45
15193;BME280;7697;51.630;7.484;2023-05-09T10:56:31;100475.56;;;22.77;73.75
15193;BME280;7697;51.630;7.484;2023-05-09T11:01:34;100469.03;;;22.83;71.83
15193;BME280;7697;51.630;7.484;2023-05-09T11:06:43;100459.22;;;22.92;72.54
15193;BME280;7697;51.630;7.484;2023-05-09T11:11:50;100451.66;;;22.94;70.99
15193;BME280;7697;51.630;7.484;2023-05-09T11:16:59;100443.69;;;22.79;71.23
15193;BME280;7697;51.630;7.484;2023-05-09T11:22:11;100434.09;;;22.92;71.29
15193;BME280;7697;51.630;7.484;2023-05-09T11:27:14;100442.03;;;23.36;70.36
15193;BME280;7697;51.630;7.484;2023-05-09T11:32:16;100426.66;;;23.60;69.75
15193;BME280;7697;51.630;7.484;2023-05-09T11:37:19;100421.13;;;23.70;68.94
15193;BME280;7697;51.630;7.484;2023-05-09T11:42:22;100417.66;;;23.88;67.94
15193;BME280;7697;51.630;7.484;2023-05-09T11:47:24;100407.53;;;23.75;67.12
15193;BME280;7697;51.630;7.484;2023-05-09T11:52:32;100398.31;;;23.76;65.73
15193;BME280;7697;51.630;7.484;2023-05-09T11:57:34;100386.63;;;24.00;66.48
15193;BME280;7697;51.630;7.484;2023-05-09T12:02:36;100371.31;;;24.09;66.38
15193;BME280;7697;51.630;7.484;2023-05-09T12:07:40;100370.75;;;24.12;64.83
15193;BME280;7697;51.630;7.484;2023-05-09T12:12:43;100363.06;;;24.00;65.74
15193;BME280;7697;51.630;7.484;2023-05-09T12:17:45;100355.84;;;23.77;64.89
15193;BME280;7697;51.630;7.484;2023-05-09T12:22:53;100347.25;;;24.26;63.88
15193;BME280;7697;51.630;7.484;2023-05-09T12:27:58;100338.72;;;24.51;65.40
15193;BME280;7697;51.630;7.484;2023-05-09T12:33:00;100329.00;;;24.50;65.99
15193;BME280;7697;51.630;7.484;2023-05-09T12:38:04;100329.56;;;24.34;62.80
15193;BME280;7697;51.630;7.484;2023-05-09T12:43:06;100329.56;;;24.34;64.40
15193;BME280;7697;51.630;7.484;2023-05-09T12:48:08;100316.22;;;24.37;64.88
15193;BME280;7697;51.630;7.484;2023-05-09T12:53:12;100308.72;;;24.15;64.93
15193;BME280;7697;51.630;7.484;2023-05-09T12:58:28;100306.72;;;23.88;64.70
15193;BME280;7697;51.630;7.484;2023-05-09T13:03:30;100317.22;;;23.71;66.34
15193;BME280;7697;51.630;7.484;2023-05-09T13:08:39;100325.13;;;23.25;73.02
15193;BME280;7697;51.630;7.484;2023-05-09T13:13:41;100305.56;;;22.62;76.03
15193;BME280;7697;51.630;7.484;2023-05-09T13:18:43;100292.34;;;22.31;78.79
15193;BME280;7697;51.630;7.484;2023-05-09T13:23:49;100276.25;;;22.21;80.20
15193;BME280;7697;51.630;7.484;2023-05-09T13:28:51;100273.59;;;22.16;81.84
15193;BME280;7697;51.630;7.484;2023-05-09T13:33:53;100265.22;;;22.18;82.25
15193;BME280;7697;51.630;7.484;2023-05-09T13:38:56;100257.41;;;22.16;82.82
15193;BME280;7697;51.630;7.484;2023-05-09T13:43:58;100251.00;;;22.07;83.28
15193;BME280;7697;51.630;7.484;2023-05-09T13:49:00;100243.75;;;22.02;83.29
15193;BME280;7697;51.630;7.484;2023-05-09T13:54:03;100246.22;;;21.99;83.54
15193;BME280;7697;51.630;7.484;2023-05-09T13:59:08;100240.34;;;21.87;83.19
15193;BME280;7697;51.630;7.484;2023-05-09T14:04:11;100244.66;;;21.54;83.43
15193;BME280;7697;51.630;7.484;2023-05-09T14:09:14;100248.59;;;21.27;84.26
15193;BME280;7697;51.630;7.484;2023-05-09T14:14:16;100229.53;;;21.04;84.61
15193;BME280;7697;51.630;7.484;2023-05-09T14:19:18;100231.81;;;20.81;85.67
15193;BME280;7697;51.630;7.484;2023-05-09T14:24:22;100222.41;;;20.69;86.10
15193;BME280;7697;51.630;7.484;2023-05-09T14:29:24;100229.69;;;20.73;86.37
15193;BME280;7697;51.630;7.484;2023-05-09T14:34:26;100218.66;;;20.59;87.52
15193;BME280;7697;51.630;7.484;2023-05-09T14:39:29;100212.00;;;20.42;88.94
15193;BME280;7697;51.630;7.484;2023-05-09T14:44:31;100204.47;;;20.29;89.64
15193;BME280;7697;51.630;7.484;2023-05-09T14:49:35;100196.16;;;20.15;90.22
15193;BME280;7697;51.630;7.484;2023-05-09T14:54:39;100192.13;;;20.17;90.93
15193;BME280;7697;51.630;7.484;2023-05-09T14:59:41;100203.16;;;19.96;92.34
15193;BME280;7697;51.630;7.484;2023-05-09T15:04:43;100201.56;;;19.74;93.89
15193;BME280;7697;51.630;7.484;2023-05-09T15:09:53;100203.44;;;19.69;94.37
15193;BME280;7697;51.630;7.484;2023-05-09T15:14:57;100204.78;;;19.61;94.54
15193;BME280;7697;51.630;7.484;2023-05-09T15:19:59;100196.69;;;19.41;96.42
15193;BME280;7697;51.630;7.484;2023-05-09T15:25:04;100189.69;;;19.35;96.67
15193;BME280;7697;51.630;7.484;2023-05-09T15:30:07;100173.31;;;19.36;97.19
15193;BME280;7697;51.630;7.484;2023-05-09T15:35:09;100177.88;;;19.46;96.77
15193;BME280;7697;51.630;7.484;2023-05-09T15:40:13;100177.41;;;19.59;96.81
15193;BME280;7697;51.630;7.484;2023-05-09T15:45:16;100178.47;;;19.68;96.26
15193;BME280;7697;51.630;7.484;2023-05-09T15:50:21;100181.94;;;19.69;96.76
15193;BME280;7697;51.630;7.484;2023-05-09T15:55:24;100168.53;;;19.64;96.92
15193;BME280;7697;51.630;7.484;2023-05-09T16:00:27;100161.28;;;19.49;97.53
15193;BME280;7697;51.630;7.484;2023-05-09T16:05:29;100155.03;;;19.43;97.46
15193;BME280;7697;51.630;7.484;2023-05-09T16:10:33;100158.81;;;19.37;97.38
15193;BME280;7697;51.630;7.484;2023-05-09T16:15:35;100159.88;;;19.31;97.73
15193;BME280;7697;51.630;7.484;2023-05-09T16:20:59;100181.09;;;19.28;98.63
15193;BME280;7697;51.630;7.484;2023-05-09T16:26:19;100157.69;;;19.03;100.00
15193;BME280;7697;51.630;7.484;2023-05-09T16:31:22;100156.50;;;18.68;100.00
15193;BME280;7697;51.630;7.484;2023-05-09T16:36:25;100163.72;;;18.63;100.00
15193;BME280;7697;51.630;7.484;2023-05-09T16:41:30;100164.44;;;18.53;100.00
15193;BME280;7697;51.630;7.484;2023-05-09T16:46:32;100160.38;;;18.46;100.00
15193;BME280;7697;51.630;7.484;2023-05-09T16:51:34;100157.44;;;18.47;100.00
15193;BME280;7697;51.630;7.484;2023-05-09T16:56:37;100159.03;;;18.43;100.00
15193;BME280;7697;51.630;7.484;2023-05-09T17:01:39;100172.72;;;18.47;100.00
15193;BME280;7697;51.630;7.484;2023-05-09T17:06:41;100163.31;;;18.39;100.00
15193;BME280;7697;51.630;7.484;2023-05-09T17:11:49;100143.47;;;18.40;100.00
15193;BME280;7697;51.630;7.484;2023-05-09T17:16:52;100151.78;;;18.44;100.00
15193;BME280;7697;51.630;7.484;2023-05-09T17:21:57;100142.66;;;18.40;100.00
15193;BME280;7697;51.630;7.484;2023-05-09T17:27:06;100145.63;;;18.43;100.00
15193;BME280;7697;51.630;7.484;2023-05-09T17:32:10;100146.13;;;18.35;100.00
15193;BME280;7697;51.630;7.484;2023-05-09T17:37:12;100139.69;;;18.31;100.00
15193;BME280;7697;51.630;7.484;2023-05-09T17:42:15;100143.19;;;18.36;100.00
15193;BME280;7697;51.630;7.484;2023-05-09T17:47:17;100140.72;;;18.25;100.00
15193;BME280;7697;51.630;7.484;2023-05-09T17:52:22;100134.25;;;18.16;100.00
15193;BME280;7697;51.630;7.484;2023-05-09T17:57:25;100137.19;;;18.14;100.00
15193;BME280;7697;51.630;7.484;2023-05-09T18:02:28;100137.44;;;18.13;100.00
15193;BME280;7697;51.630;7.484;2023-05-09T18:07:38;100136.31;;;18.09;100.00
15193;BME280;7697;51.630;7.484;2023-05-09T18:12:43;100122.59;;;18.00;100.00
15193;BME280;7697;51.630;7.484;2023-05-09T18:17:50;100122.34;;;17.96;100.00
15193;BME280;7697;51.630;7.484;2023-05-09T18:22:54;100113.50;;;17.96;100.00
15193;BME280;7697;51.630;7.484;2023-05-09T18:28:00;100108.13;;;17.96;100.00
15193;BME280;7697;51.630;7.484;2023-05-09T18:33:05;100113.19;;;17.92;100.00
15193;BME280;7697;51.630;7.484;2023-05-09T18:38:10;100112.06;;;17.83;100.00
15193;BME280;7697;51.630;7.484;2023-05-09T18:43:18;100105.63;;;17.84;100.00
15193;BME280;7697;51.630;7.484;2023-05-09T18:48:23;100114.16;;;17.76;100.00
15193;BME280;7697;51.630;7.484;2023-05-09T18:53:28;100105.81;;;17.73;100.00
15193;BME280;7697;51.630;7.484;2023-05-09T18:58:48;100094.03;;;17.69;100.00
15193;BME280;7697;51.630;7.484;2023-05-09T19:03:50;100092.72;;;17.76;100.00
15193;BME280;7697;51.630;7.484;2023-05-09T19:08:56;100088.44;;;17.75;100.00
15193;BME280;7697;51.630;7.484;2023-05-09T19:14:01;100102.13;;;17.79;100.00
15193;BME280;7697;51.630;7.484;2023-05-09T19:19:18;100091.91;;;17.71;100.00
15193;BME280;7697;51.630;7.484;2023-05-09T19:24:20;100092.84;;;17.59;100.00
15193;BME280;7697;51.630;7.484;2023-05-09T19:29:23;100088.91;;;17.62;100.00
15193;BME280;7697;51.630;7.484;2023-05-09T19:34:26;100091.59;;;17.62;100.00
15193;BME280;7697;51.630;7.484;2023-05-09T19:39:29;100089.59;;;17.52;100.00
15193;BME280;7697;51.630;7.484;2023-05-09T19:44:35;100081.00;;;17.50;100.00
15193;BME280;7697;51.630;7.484;2023-05-09T19:49:38;100080.44;;;17.43;100.00
15193;BME280;7697;51.630;7.484;2023-05-09T19:54:42;100074.19;;;17.33;100.00
15193;BME280;7697;51.630;7.484;2023-05-09T19:59:45;100085.69;;;17.33;100.00
15193;BME280;7697;51.630;7.484;2023-05-09T20:04:53;100084.34;;;17.31;100.00
15193;BME280;7697;51.630;7.484;2023-05-09T20:09:59;100100.41;;;17.31;100.00
15193;BME280;7697;51.630;7.484;2023-05-09T20:15:05;100079.34;;;17.12;100.00
15193;BME280;7697;51.630;7.484;2023-05-09T20:20:11;100089.03;;;17.18;100.00
15193;BME280;7697;51.630;7.484;2023-05-09T20:25:13;100071.88;;;17.14;100.00
15193;BME280;7697;51.630;7.484;2023-05-09T20:30:16;100075.84;;;17.07;100.00
15193;BME280;7697;51.630;7.484;2023-05-09T20:35:21;100080.38;;;17.06;100.00
15193;BME280;7697;51.630;7.484;2023-05-09T20:40:26;100071.25;;;17.02;100.00
15193;BME280;7697;51.630;7.484;2023-05-09T20:45:31;100064.25;;;17.01;100.00
15193;BME280;7697;51.630;7.484;2023-05-09T20:50:33;100056.25;;;17.01;100.00
15193;BME280;7697;51.630;7.484;2023-05-09T20:55:36;100056.53;;;17.00;100.00
15193;BME280;7697;51.630;7.484;2023-05-09T21:00:40;100040.72;;;16.98;100.00
15193;BME280;7697;51.630;7.484;2023-05-09T21:05:42;100036.44;;;17.02;100.00
15193;BME280;7697;51.630;7.484;2023-05-09T21:10:43;100050.88;;;17.01;100.00
15193;BME280;7697;51.630;7.484;2023-05-09T21:15:48;100054.84;;;16.94;100.00
15193;BME280;7697;51.630;7.484;2023-05-09T21:20:53;100046.25;;;16.92;100.00
15193;BME280;7697;51.630;7.484;2023-05-09T21:25:57;100048.44;;;16.95;100.00
15193;BME280;7697;51.630;7.484;2023-05-09T21:31:04;100045.50;;;16.96;100.00
15193;BME280;7697;51.630;7.484;2023-05-09T21:36:06;100044.38;;;16.92;100.00
15193;BME280;7697;51.630;7.484;2023-05-09T21:41:12;100041.13;;;16.85;100.00
15193;BME280;7697;51.630;7.484;2023-05-09T21:46:16;100044.84;;;16.84;100.00
15193;BME280;7697;51.630;7.484;2023-05-09T21:51:20;100042.38;;;16.77;100.00
15193;BME280;7697;51.630;7.484;2023-05-09T21:56:22;100040.53;;;16.78;100.00
15193;BME280;7697;51.630;7.484;2023-05-09T22:01:26;100037.59;;;16.79;100.00
15193;BME280;7697;51.630;7.484;2023-05-09T22:06:27;100029.81;;;16.78;100.00
15193;BME280;7697;51.630;7.484;2023-05-09T22:11:29;100023.34;;;16.74;100.00
15193;BME280;7697;51.630;7.484;2023-05-09T22:16:34;100027.13;;;16.73;100.00
15193;BME280;7697;51.630;7.484;2023-05-09T22:21:38;100030.03;;;16.71;100.00
15193;BME280;7697;51.630;7.484;2023-05-09T22:26:40;100031.38;;;16.74;100.00
15193;BME280;7697;51.630;7.484;2023-05-09T22:31:43;100038.31;;;16.70;100.00
15193;BME280;7697;51.630;7.484;2023-05-09T22:36:45;100032.50;;;16.56;100.00
15193;BME280;7697;51.630;7.484;2023-05-09T22:41:48;100028.66;;;16.47;100.00
15193;BME280;7697;51.630;7.484;2023-05-09T22:46:51;100037.94;;;16.39;100.00
15193;BME280;7697;51.630;7.484;2023-05-09T22:51:53;100020.25;;;16.33;100.00
15193;BME280;7697;51.630;7.484;2023-05-09T22:56:55;100021.75;;;16.24;100.00
15193;BME280;7697;51.630;7.484;2023-05-09T23:01:58;100019.97;;;16.08;100.00
15193;BME280;7697;51.630;7.484;2023-05-09T23:07:00;100008.47;;;16.07;100.00
15193;BME280;7697;51.630;7.484;2023-05-09T23:12:02;100022.06;;;16.06;100.00
15193;BME280;7697;51.630;7.484;2023-05-09T23:17:05;100023.19;;;16.10;100.00
15193;BME280;7697;51.630;7.484;2023-05-09T23:22:07;100023.69;;;16.07;100.00
15193;BME280;7697;51.630;7.484;2023-05-09T23:27:09;100020.41;;;16.00;100.00
15193;BME280;7697;51.630;7.484;2023-05-09T23:32:13;100010.19;;;15.97;100.00
15193;BME280;7697;51.630;7.484;2023-05-09T23:37:14;100014.41;;;15.93;100.00
15193;BME280;7697;51.630;7.484;2023-05-09T23:42:16;100021.31;;;15.89;100.00
15193;BME280;7697;51.630;7.484;2023-05-09T23:47:19;100014.84;;;15.85;100.00
15193;BME280;7697;51.630;7.484;2023-05-09T23:52:21;100008.41;;;15.81;100.00
15193;BME280;7697;51.630;7.484;2023-05-09T23:57:23;99997.91;;;15.74;100.00
